Time;durP1;ratioP1;P1;durP2;ratioP2;P2;SDS_P1;SDS_P2;PMS_P1;PMS_P2;Temp;Humidity;BMP_temperature;BMP_pressure;BME280_temperature;BME280_humidity;BME280_pressure;Samples;Min_cycle;Max_cycle;Signal;HPM_P1;HPM_P2
2022/03/10 00:00:55;;;;;;;0.00;0.00;;;;;;;;;;4920515;29;20211;-77
2022/03/10 00:03:24;;;;;;;0.00;0.00;;;;;;;;;;4921513;29;20739;-77
2022/03/10 00:05:51;;;;;;;0.47;0.47;;;;;;;;;;4921472;29;20199;-76
2022/03/10 00:08:19;;;;;;;0.50;0.50;;;;;;;;;;4921237;29;20218;-75
2022/03/10 00:10:46;;;;;;;0.40;0.40;;;;;;;;;;4920825;29;20214;-77
2022/03/10 00:13:14;;;;;;;0.13;0.13;;;;;;;;;;4921755;29;21640;-75
2022/03/10 00:15:41;;;;;;;0.00;0.00;;;;;;;;;;4924345;29;20215;-75
2022/03/10 00:18:09;;;;;;;0.00;0.00;;;;;;;;;;4923232;29;20636;-76
2022/03/10 00:20:38;;;;;;;0.00;0.00;;;;;;;;;;4921736;29;20204;-76
2022/03/10 00:23:05;;;;;;;0.00;0.00;;;;;;;;;;4919523;29;20220;-77
2022/03/10 00:25:34;;;;;;;0.67;0.67;;;;;;;;;;4921910;29;20214;-75
2022/03/10 00:28:01;;;;;;;0.00;0.00;;;;;;;;;;4920557;29;21308;-75
2022/03/10 00:30:29;;;;;;;16.73;6.67;;;;;;;;;;4920884;29;20686;-76
2022/03/10 00:32:57;;;;;;;0.00;0.00;;;;;;;;;;4922194;29;20234;-75
2022/03/10 00:35:26;;;;;;;0.83;0.70;;;;;;;;;;4920629;29;20199;-76
2022/03/10 00:37:55;;;;;;;0.00;0.00;;;;;;;;;;4920691;29;20835;-75
2022/03/10 00:40:23;;;;;;;0.00;0.00;;;;;;;;;;4920519;29;20203;-75
2022/03/10 00:42:50;;;;;;;0.00;0.00;;;;;;;;;;4922048;29;20203;-76
2022/03/10 00:45:18;;;;;;;0.00;0.00;;;;;;;;;;4921341;29;20232;-75
2022/03/10 00:47:46;;;;;;;0.20;0.20;;;;;;;;;;4919667;29;20253;-75
2022/03/10 00:50:14;;;;;;;0.00;0.00;;;;;;;;;;4920703;29;20220;-77
2022/03/10 00:52:42;;;;;;;0.00;0.00;;;;;;;;;;4920253;29;20232;-75
2022/03/10 00:55:11;;;;;;;0.00;0.00;;;;;;;;;;4921376;29;20646;-78
2022/03/10 00:57:39;;;;;;;0.97;0.70;;;;;;;;;;4918383;29;20259;-76
2022/03/10 01:00:07;;;;;;;0.00;0.00;;;;;;;;;;4919811;29;20553;-76
2022/03/10 01:02:35;;;;;;;0.27;0.27;;;;;;;;;;4921588;29;20196;-77
2022/03/10 01:05:02;;;;;;;0.83;0.83;;;;;;;;;;4920913;29;20677;-76
2022/03/10 01:07:30;;;;;;;0.00;0.00;;;;;;;;;;4919654;29;20200;-76
2022/03/10 01:09:57;;;;;;;0.37;0.37;;;;;;;;;;4920119;29;20208;-75
2022/03/10 01:12:26;;;;;;;0.60;0.60;;;;;;;;;;4924143;29;20211;-74
2022/03/10 01:14:54;;;;;;;0.10;0.10;;;;;;;;;;4926891;29;20199;-77
2022/03/10 01:17:21;;;;;;;0.00;0.00;;;;;;;;;;4922443;29;20653;-77
2022/03/10 01:19:49;;;;;;;0.00;0.00;;;;;;;;;;4925214;29;20676;-76
2022/03/10 01:22:17;;;;;;;0.20;0.20;;;;;;;;;;4923599;29;20744;-75
2022/03/10 01:24:44;;;;;;;0.00;0.00;;;;;;;;;;4922954;29;20207;-76
2022/03/10 01:27:12;;;;;;;0.10;0.10;;;;;;;;;;4922174;29;20731;-77
2022/03/10 01:29:41;;;;;;;0.00;0.00;;;;;;;;;;4926086;29;20694;-74
2022/03/10 01:32:11;;;;;;;0.00;0.00;;;;;;;;;;4921226;29;20231;-75
2022/03/10 01:34:38;;;;;;;1.37;1.30;;;;;;;;;;4925817;29;20204;-74
2022/03/10 01:37:06;;;;;;;0.00;0.00;;;;;;;;;;4923188;29;20200;-75
2022/03/10 01:39:33;;;;;;;0.00;0.00;;;;;;;;;;4922737;29;20214;-76
2022/03/10 01:42:03;;;;;;;3.10;0.83;;;;;;;;;;4924164;29;20200;-75
2022/03/10 01:44:30;;;;;;;5.60;3.50;;;;;;;;;;4923405;29;20732;-75
2022/03/10 01:47:01;;;;;;;0.30;0.30;;;;;;;;;;4924041;29;20658;-77
2022/03/10 01:49:28;;;;;;;1.17;0.43;;;;;;;;;;4925778;29;20207;-76
2022/03/10 01:51:56;;;;;;;0.23;0.23;;;;;;;;;;4925308;29;20613;-75
2022/03/10 01:54:23;;;;;;;0.00;0.00;;;;;;;;;;4923347;29;20215;-76
2022/03/10 01:56:52;;;;;;;0.00;0.00;;;;;;;;;;4923325;29;20207;-76
2022/03/10 01:59:20;;;;;;;0.00;0.00;;;;;;;;;;4924806;29;20208;-75
2022/03/10 02:01:47;;;;;;;0.10;0.10;;;;;;;;;;4923858;29;20552;-76
2022/03/10 02:04:16;;;;;;;0.00;0.00;;;;;;;;;;4924497;29;20211;-75
2022/03/10 02:06:44;;;;;;;0.00;0.00;;;;;;;;;;4922960;29;20207;-75
2022/03/10 02:11:57;;;;;;;0.10;0.10;;;;;;;;;;4923347;29;20363;-76
2022/03/10 02:17:22;;;;;;;1.73;1.70;;;;;;;;;;4923325;29;20207;-77
2022/03/10 02:19:52;;;;;;;0.00;0.00;;;;;;;;;;4923240;29;20204;-77
2022/03/10 02:22:21;;;;;;;0.00;0.00;;;;;;;;;;4922336;29;20199;-75
2022/03/10 02:24:49;;;;;;;1.93;1.83;;;;;;;;;;4922199;29;20222;-76
2022/03/10 02:27:18;;;;;;;0.63;0.60;;;;;;;;;;4923763;29;20243;-76
2022/03/10 02:29:46;;;;;;;0.00;0.00;;;;;;;;;;4925230;29;20319;-76
2022/03/10 02:32:15;;;;;;;0.07;0.07;;;;;;;;;;4922648;29;20223;-75
2022/03/10 02:34:43;;;;;;;0.00;0.00;;;;;;;;;;4925272;29;20216;-75
2022/03/10 02:37:11;;;;;;;0.33;0.33;;;;;;;;;;4923516;29;20196;-76
2022/03/10 02:39:41;;;;;;;0.00;0.00;;;;;;;;;;4922547;29;20212;-76
2022/03/10 02:42:09;;;;;;;1.70;1.60;;;;;;;;;;4925233;29;20231;-74
2022/03/10 02:44:41;;;;;;;0.00;0.00;;;;;;;;;;4922636;29;20204;-76
2022/03/10 02:47:09;;;;;;;0.00;0.00;;;;;;;;;;4924079;29;20669;-76
2022/03/10 02:49:37;;;;;;;0.00;0.00;;;;;;;;;;4923229;29;20307;-78
2022/03/10 02:52:05;;;;;;;0.00;0.00;;;;;;;;;;4923535;29;20207;-75
2022/03/10 02:54:33;;;;;;;0.17;0.17;;;;;;;;;;4925377;29;20200;-76
2022/03/10 02:57:03;;;;;;;0.00;0.00;;;;;;;;;;4921860;29;20200;-76
2022/03/10 02:59:30;;;;;;;0.20;0.20;;;;;;;;;;4922759;29;20274;-77
2022/03/10 03:01:58;;;;;;;0.10;0.10;;;;;;;;;;4924040;29;20216;-75
2022/03/10 03:04:25;;;;;;;0.10;0.10;;;;;;;;;;4922937;29;20699;-76
2022/03/10 03:06:53;;;;;;;0.00;0.00;;;;;;;;;;4921349;29;20215;-78
2022/03/10 03:09:21;;;;;;;0.00;0.00;;;;;;;;;;4918786;29;20561;-75
2022/03/10 03:11:48;;;;;;;0.00;0.00;;;;;;;;;;4920330;29;20212;-75
2022/03/10 03:14:17;;;;;;;2.80;2.53;;;;;;;;;;4923480;29;20211;-76
2022/03/10 03:16:45;;;;;;;0.00;0.00;;;;;;;;;;4921348;29;20196;-76
2022/03/10 03:19:13;;;;;;;0.10;0.10;;;;;;;;;;4923127;29;20639;-76
2022/03/10 03:21:40;;;;;;;2.20;1.87;;;;;;;;;;4921127;29;20214;-76
2022/03/10 03:24:07;;;;;;;0.00;0.00;;;;;;;;;;4921375;29;20203;-77
2022/03/10 03:26:35;;;;;;;0.00;0.00;;;;;;;;;;4922226;29;20259;-75
2022/03/10 03:29:02;;;;;;;0.00;0.00;;;;;;;;;;4924510;29;20203;-76
2022/03/10 03:31:31;;;;;;;0.07;0.07;;;;;;;;;;4920724;29;20781;-76
2022/03/10 03:33:59;;;;;;;0.00;0.00;;;;;;;;;;4924321;29;20224;-77
2022/03/10 03:36:26;;;;;;;0.00;0.00;;;;;;;;;;4922759;29;20208;-76
2022/03/10 03:38:54;;;;;;;0.00;0.00;;;;;;;;;;4922746;29;20215;-75
2022/03/10 03:41:21;;;;;;;0.23;0.23;;;;;;;;;;4919958;29;20212;-76
2022/03/10 03:43:49;;;;;;;0.00;0.00;;;;;;;;;;4920398;29;20607;-75
2022/03/10 03:46:16;;;;;;;0.00;0.00;;;;;;;;;;4922373;29;20239;-77
2022/03/10 03:48:46;;;;;;;0.00;0.00;;;;;;;;;;4924923;29;20211;-76
2022/03/10 03:51:13;;;;;;;0.00;0.00;;;;;;;;;;4928116;29;20239;-77
2022/03/10 03:53:40;;;;;;;2.30;2.10;;;;;;;;;;4927060;29;20330;-76
2022/03/10 03:56:08;;;;;;;0.00;0.00;;;;;;;;;;4928339;29;20699;-76
2022/03/10 03:58:35;;;;;;;0.00;0.00;;;;;;;;;;4926674;29;20208;-76
2022/03/10 04:01:03;;;;;;;0.90;0.90;;;;;;;;;;4924571;29;20295;-76
2022/03/10 04:03:30;;;;;;;0.00;0.00;;;;;;;;;;4921952;29;20210;-77
2022/03/10 04:05:59;;;;;;;5.37;4.83;;;;;;;;;;4927231;29;20210;-76
2022/03/10 04:08:26;;;;;;;0.00;0.00;;;;;;;;;;4924190;29;20218;-76
2022/03/10 04:10:54;;;;;;;0.07;0.07;;;;;;;;;;4922943;29;20747;-77
2022/03/10 04:13:22;;;;;;;0.00;0.00;;;;;;;;;;4920487;29;20227;-76
2022/03/10 04:15:50;;;;;;;0.00;0.00;;;;;;;;;;4925317;29;20641;-77
2022/03/10 04:18:17;;;;;;;0.00;0.00;;;;;;;;;;4924075;29;20214;-76
2022/03/10 04:20:45;;;;;;;0.17;0.17;;;;;;;;;;4923770;29;20216;-76
2022/03/10 04:23:14;;;;;;;2.57;1.23;;;;;;;;;;4926555;29;20230;-77
2022/03/10 04:25:42;;;;;;;0.00;0.00;;;;;;;;;;4925442;29;20230;-76
2022/03/10 04:28:10;;;;;;;0.00;0.00;;;;;;;;;;4939461;28;20239;-76
2022/03/10 04:30:38;;;;;;;0.00;0.00;;;;;;;;;;4945330;28;20205;-75
2022/03/10 04:33:06;;;;;;;0.00;0.00;;;;;;;;;;4969629;28;20755;-76
2022/03/10 04:35:34;;;;;;;0.00;0.00;;;;;;;;;;4951450;28;20230;-78
2022/03/10 04:38:01;;;;;;;0.00;0.00;;;;;;;;;;4945830;28;21198;-76
2022/03/10 04:40:31;;;;;;;0.00;0.00;;;;;;;;;;4953757;28;20206;-76
2022/03/10 04:42:59;;;;;;;0.00;0.00;;;;;;;;;;4949172;28;20214;-77
2022/03/10 04:45:26;;;;;;;0.10;0.10;;;;;;;;;;4948816;28;20203;-77
2022/03/10 04:47:54;;;;;;;1.00;0.67;;;;;;;;;;4953266;28;20199;-77
2022/03/10 04:50:21;;;;;;;0.00;0.00;;;;;;;;;;4956246;28;20207;-76
2022/03/10 04:52:49;;;;;;;0.00;0.00;;;;;;;;;;4956329;28;20243;-77
2022/03/10 04:55:16;;;;;;;0.00;0.00;;;;;;;;;;4953525;28;20270;-76
2022/03/10 04:57:45;;;;;;;0.30;0.30;;;;;;;;;;4956668;28;20289;-76
2022/03/10 05:00:14;;;;;;;0.00;0.00;;;;;;;;;;4961480;28;20204;-75
2022/03/10 05:02:42;;;;;;;0.00;0.00;;;;;;;;;;4962814;28;20209;-76
2022/03/10 05:05:11;;;;;;;0.03;0.03;;;;;;;;;;4956062;28;20296;-76
2022/03/10 05:07:38;;;;;;;0.00;0.00;;;;;;;;;;4960814;28;20637;-75
2022/03/10 05:10:06;;;;;;;0.00;0.00;;;;;;;;;;4952142;28;20210;-75
2022/03/10 05:12:33;;;;;;;0.00;0.00;;;;;;;;;;4961766;28;20226;-76
2022/03/10 05:15:02;;;;;;;0.00;0.00;;;;;;;;;;4958688;28;20220;-76
2022/03/10 05:17:29;;;;;;;0.00;0.00;;;;;;;;;;4954667;28;20250;-76
2022/03/10 05:19:57;;;;;;;0.50;0.50;;;;;;;;;;4954884;28;20206;-76
2022/03/10 05:22:24;;;;;;;2.97;2.53;;;;;;;;;;4955324;28;20255;-77
2022/03/10 05:24:52;;;;;;;0.23;0.23;;;;;;;;;;4957964;28;20199;-75
2022/03/10 05:27:19;;;;;;;0.00;0.00;;;;;;;;;;4955800;28;20723;-76
2022/03/10 05:29:47;;;;;;;0.00;0.00;;;;;;;;;;4949363;28;20198;-75
2022/03/10 05:32:18;;;;;;;0.63;0.53;;;;;;;;;;4958247;28;20235;-76
2022/03/10 05:34:46;;;;;;;6.70;5.63;;;;;;;;;;4952309;28;20669;-76
2022/03/10 05:37:13;;;;;;;0.30;0.30;;;;;;;;;;4956471;28;20210;-76
2022/03/10 05:39:41;;;;;;;1.53;0.77;;;;;;;;;;4958499;28;20198;-76
2022/03/10 05:42:08;;;;;;;0.67;0.67;;;;;;;;;;4951370;28;20632;-76
2022/03/10 05:44:35;;;;;;;0.00;0.00;;;;;;;;;;4945194;29;20202;-75
2022/03/10 05:47:03;;;;;;;0.00;0.00;;;;;;;;;;4956167;29;20213;-75
2022/03/10 05:49:32;;;;;;;0.00;0.00;;;;;;;;;;4942814;29;20250;-75
2022/03/10 05:51:59;;;;;;;0.00;0.00;;;;;;;;;;4953904;28;20211;-75
2022/03/10 05:54:27;;;;;;;0.00;0.00;;;;;;;;;;4954638;28;20227;-75
2022/03/10 05:56:54;;;;;;;0.00;0.00;;;;;;;;;;4954673;28;20203;-76
2022/03/10 05:59:22;;;;;;;1.03;1.03;;;;;;;;;;4955754;29;20202;-76
2022/03/10 06:01:49;;;;;;;0.00;0.00;;;;;;;;;;4955066;28;20763;-76
2022/03/10 06:04:16;;;;;;;2.27;1.77;;;;;;;;;;4955696;29;20250;-75
2022/03/10 06:06:46;;;;;;;0.00;0.00;;;;;;;;;;4954719;28;20206;-76
2022/03/10 06:09:13;;;;;;;0.73;0.73;;;;;;;;;;4954945;28;20624;-76
2022/03/10 06:11:41;;;;;;;0.27;0.17;;;;;;;;;;4952799;28;20206;-75
2022/03/10 06:14:09;;;;;;;0.47;0.47;;;;;;;;;;4954902;28;20234;-75
2022/03/10 06:16:36;;;;;;;0.00;0.00;;;;;;;;;;4955531;28;20206;-75
2022/03/10 06:19:03;;;;;;;0.00;0.00;;;;;;;;;;4954422;28;20207;-75
2022/03/10 06:21:33;;;;;;;0.67;0.67;;;;;;;;;;4953016;28;20217;-75
2022/03/10 06:24:02;;;;;;;0.00;0.00;;;;;;;;;;4954913;28;20203;-75
2022/03/10 06:26:29;;;;;;;0.10;0.10;;;;;;;;;;4954808;28;20705;-75
2022/03/10 06:28:57;;;;;;;0.17;0.17;;;;;;;;;;4952427;28;20290;-75
2022/03/10 06:31:24;;;;;;;0.00;0.00;;;;;;;;;;4950986;28;20203;-75
2022/03/10 06:33:52;;;;;;;1.47;1.43;;;;;;;;;;4959193;28;20708;-75
2022/03/10 06:36:20;;;;;;;0.33;0.33;;;;;;;;;;4954102;28;20203;-76
2022/03/10 06:38:47;;;;;;;0.00;0.00;;;;;;;;;;4952705;28;20207;-76
2022/03/10 06:41:16;;;;;;;0.00;0.00;;;;;;;;;;4953157;28;20664;-76
2022/03/10 06:43:43;;;;;;;0.00;0.00;;;;;;;;;;4951115;28;20595;-75
2022/03/10 06:46:11;;;;;;;0.00;0.00;;;;;;;;;;4940743;29;20259;-75
2022/03/10 06:48:38;;;;;;;0.83;0.53;;;;;;;;;;4935577;29;20203;-75
2022/03/10 06:51:06;;;;;;;1.40;1.10;;;;;;;;;;4935384;29;20207;-76
2022/03/10 06:53:34;;;;;;;0.00;0.00;;;;;;;;;;4947987;28;20230;-76
2022/03/10 06:56:02;;;;;;;0.00;0.00;;;;;;;;;;4954282;28;20195;-75
2022/03/10 06:58:31;;;;;;;0.47;0.47;;;;;;;;;;4953738;28;20672;-76
2022/03/10 07:00:59;;;;;;;0.73;0.73;;;;;;;;;;4953575;28;20253;-76
2022/03/10 07:03:26;;;;;;;0.43;0.43;;;;;;;;;;4954218;29;20673;-76
2022/03/10 07:05:54;;;;;;;0.37;0.37;;;;;;;;;;4953570;28;20206;-77
2022/03/10 07:08:21;;;;;;;0.40;0.40;;;;;;;;;;4953389;28;20706;-76
2022/03/10 07:10:48;;;;;;;0.37;0.37;;;;;;;;;;4951714;28;20199;-76
2022/03/10 07:13:16;;;;;;;0.70;0.70;;;;;;;;;;4954024;29;20727;-74
2022/03/10 07:15:44;;;;;;;0.33;0.33;;;;;;;;;;4952801;28;20202;-76
2022/03/10 07:18:12;;;;;;;1.80;1.10;;;;;;;;;;4952175;28;20214;-76
2022/03/10 07:20:39;;;;;;;1.53;1.10;;;;;;;;;;4954020;29;20583;-75
2022/03/10 07:23:06;;;;;;;0.50;0.30;;;;;;;;;;4952282;28;20222;-76
2022/03/10 07:25:34;;;;;;;0.67;0.67;;;;;;;;;;4953347;28;20198;-76
2022/03/10 07:28:01;;;;;;;3.53;3.33;;;;;;;;;;4953101;28;20245;-76
2022/03/10 07:30:29;;;;;;;7.10;4.07;;;;;;;;;;4951065;28;20231;-75
2022/03/10 07:32:58;;;;;;;2.53;2.33;;;;;;;;;;4952940;29;20206;-76
2022/03/10 07:35:25;;;;;;;1.70;1.33;;;;;;;;;;4953369;28;20206;-77
2022/03/10 07:37:54;;;;;;;0.43;0.43;;;;;;;;;;4954465;28;20298;-78
2022/03/10 07:40:21;;;;;;;4.63;3.00;;;;;;;;;;4952455;28;20202;-77
2022/03/10 07:42:49;;;;;;;1.60;1.60;;;;;;;;;;4953425;28;20265;-78
2022/03/10 07:45:16;;;;;;;0.63;0.63;;;;;;;;;;4947664;28;20592;-76
2022/03/10 07:47:44;;;;;;;0.50;0.50;;;;;;;;;;4947713;28;20712;-78
2022/03/10 07:50:12;;;;;;;0.67;0.67;;;;;;;;;;4951583;28;20207;-77
2022/03/10 07:52:40;;;;;;;0.40;0.40;;;;;;;;;;4952259;29;20202;-76
2022/03/10 07:55:08;;;;;;;2.67;2.17;;;;;;;;;;4947872;28;20236;-77
2022/03/10 07:57:36;;;;;;;1.17;1.17;;;;;;;;;;4949198;28;20241;-77
2022/03/10 08:00:06;;;;;;;2.60;1.50;;;;;;;;;;4951714;29;20203;-77
2022/03/10 08:02:33;;;;;;;7.60;2.57;;;;;;;;;;4953061;28;20211;-76
2022/03/10 08:05:00;;;;;;;2.33;1.70;;;;;;;;;;4953306;29;20205;-75
2022/03/10 08:07:32;;;;;;;0.23;0.23;;;;;;;;;;4952458;28;20202;-76
2022/03/10 08:10:01;;;;;;;1.53;0.83;;;;;;;;;;4948675;28;20759;-75
2022/03/10 08:12:29;;;;;;;0.10;0.10;;;;;;;;;;4953463;29;20201;-75
2022/03/10 08:14:56;;;;;;;1.60;1.50;;;;;;;;;;4947963;28;20230;-75
2022/03/10 08:17:25;;;;;;;0.10;0.10;;;;;;;;;;4949327;28;20199;-76
2022/03/10 09:31:33;;;;;;;2.27;2.13;;;;;;;;;;4958951;28;20288;-67
2022/03/10 09:34:00;;;;;;;1.00;0.70;;;;;;;;;;4987755;28;20325;-66
2022/03/10 09:36:28;;;;;;;1.03;1.03;;;;;;;;;;4975131;28;20237;-66
2022/03/10 09:38:55;;;;;;;3.83;2.97;;;;;;;;;;4973415;28;20198;-66
2022/03/10 09:41:23;;;;;;;5.67;1.77;;;;;;;;;;4973020;28;20202;-65
2022/03/10 09:43:50;;;;;;;1.37;0.23;;;;;;;;;;4975005;28;20240;-65
2022/03/10 09:46:17;;;;;;;7.57;3.83;;;;;;;;;;4975082;28;20190;-65
2022/03/10 09:48:46;;;;;;;0.97;0.67;;;;;;;;;;4974749;28;20195;-66
2022/03/10 09:51:14;;;;;;;0.30;0.30;;;;;;;;;;4972058;28;20286;-66
2022/03/10 09:53:41;;;;;;;5.43;4.23;;;;;;;;;;4980288;28;20560;-67
2022/03/10 09:56:09;;;;;;;3.73;1.97;;;;;;;;;;4965754;28;20210;-66
2022/03/10 09:58:36;;;;;;;0.63;0.53;;;;;;;;;;4972983;28;20198;-66
2022/03/10 10:01:06;;;;;;;1.33;1.33;;;;;;;;;;4980565;28;20216;-65
2022/03/10 10:03:34;;;;;;;3.30;2.27;;;;;;;;;;4968309;28;20203;-67
2022/03/10 10:06:04;;;;;;;1.90;1.53;;;;;;;;;;4973786;28;20261;-66
2022/03/10 10:08:34;;;;;;;1.67;1.57;;;;;;;;;;4972659;28;20199;-66
2022/03/10 10:11:02;;;;;;;2.67;2.10;;;;;;;;;;4969444;28;20203;-68
2022/03/10 10:13:30;;;;;;;0.73;0.73;;;;;;;;;;4974021;28;20241;-66
2022/03/10 10:15:58;;;;;;;1.30;1.20;;;;;;;;;;4972683;28;20198;-65
2022/03/10 10:18:26;;;;;;;1.30;0.90;;;;;;;;;;4972130;28;20206;-66
2022/03/10 10:20:55;;;;;;;0.33;0.27;;;;;;;;;;4970875;28;20289;-66
2022/03/10 10:23:25;;;;;;;4.82;0.98;;;;;;;;;;4972584;28;20203;-66
2022/03/10 10:25:53;;;;;;;2.45;1.20;;;;;;;;;;4973279;28;20198;-67
2022/03/10 10:28:27;;;;;;;0.25;0.25;;;;;;;;;;4973054;28;20685;-66
2022/03/10 10:30:55;;;;;;;1.35;1.10;;;;;;;;;;4971459;28;20234;-66
2022/03/10 10:33:23;;;;;;;0.28;0.28;;;;;;;;;;4974293;28;20209;-67
2022/03/10 10:35:50;;;;;;;0.08;0.08;;;;;;;;;;4973522;28;20233;-67
2022/03/10 10:38:31;;;;;;;5.78;1.75;;;;;;;;;;4972954;28;20210;-67
2022/03/10 10:41:21;;;;;;;0.47;0.47;;;;;;;;;;4968177;28;20293;-68
2022/03/10 10:43:51;;;;;;;1.55;0.75;;;;;;;;;;4966980;28;20590;-69
2022/03/10 10:46:25;;;;;;;0.32;0.32;;;;;;;;;;4971193;28;20206;-66
2022/03/10 10:48:52;;;;;;;7.38;1.35;;;;;;;;;;4970573;28;20231;-66
2022/03/10 10:51:34;;;;;;;0.95;0.85;;;;;;;;;;4965422;28;20206;-67
2022/03/10 10:54:03;;;;;;;4.37;3.80;;;;;;;;;;4976185;28;20233;-66
2022/03/10 10:56:33;;;;;;;0.20;0.20;;;;;;;;;;4970843;28;20653;-66
2022/03/10 10:59:00;;;;;;;3.00;2.13;;;;;;;;;;4972953;28;20224;-67
2022/03/10 11:01:35;;;;;;;0.10;0.10;;;;;;;;;;4972739;28;20203;-68
2022/03/10 11:04:04;;;;;;;0.00;0.00;;;;;;;;;;4973172;28;20758;-67
2022/03/10 11:06:32;;;;;;;2.70;1.57;;;;;;;;;;4960291;28;20203;-67
2022/03/10 11:08:59;;;;;;;0.03;0.03;;;;;;;;;;4973378;28;20209;-66
2022/03/10 11:11:28;;;;;;;1.23;1.20;;;;;;;;;;4971319;28;20301;-67
2022/03/10 11:13:55;;;;;;;0.83;0.83;;;;;;;;;;4967913;28;20198;-66
2022/03/10 11:16:22;;;;;;;0.77;0.77;;;;;;;;;;4972416;28;20190;-66
2022/03/10 11:18:51;;;;;;;0.47;0.27;;;;;;;;;;4968901;28;20216;-66
2022/03/10 11:21:33;;;;;;;0.00;0.00;;;;;;;;;;4971881;28;20202;-67
2022/03/10 11:24:07;;;;;;;1.20;1.17;;;;;;;;;;4954814;28;20205;-66
2022/03/10 11:26:36;;;;;;;3.70;1.97;;;;;;;;;;4971906;28;20207;-66
2022/03/10 11:29:04;;;;;;;1.10;1.00;;;;;;;;;;4970849;28;20226;-66
2022/03/10 11:31:33;;;;;;;0.00;0.00;;;;;;;;;;4971678;28;20260;-66
2022/03/10 11:34:00;;;;;;;0.10;0.10;;;;;;;;;;4970674;28;20245;-67
2022/03/10 11:36:30;;;;;;;0.00;0.00;;;;;;;;;;4972334;28;20208;-67
2022/03/10 11:38:58;;;;;;;1.23;1.13;;;;;;;;;;4972749;28;20201;-67
2022/03/10 11:41:26;;;;;;;0.63;0.50;;;;;;;;;;4972454;28;20663;-67
2022/03/10 11:43:59;;;;;;;1.70;1.43;;;;;;;;;;4968661;28;20694;-67
2022/03/10 11:46:28;;;;;;;0.00;0.00;;;;;;;;;;4968164;28;20208;-67
2022/03/10 11:49:02;;;;;;;3.33;2.63;;;;;;;;;;4962942;28;20207;-66
2022/03/10 11:51:43;;;;;;;1.30;0.97;;;;;;;;;;4968121;28;20285;-68
2022/03/10 11:54:11;;;;;;;1.87;1.77;;;;;;;;;;4967101;28;20198;-65
2022/03/10 11:57:03;;;;;;;0.57;0.57;;;;;;;;;;4965634;28;20293;-68
2022/03/10 11:59:46;;;;;;;2.43;2.23;;;;;;;;;;4947810;28;20203;-68
2022/03/10 12:02:28;;;;;;;1.10;0.70;;;;;;;;;;4966777;28;20209;-67
2022/03/10 12:04:58;;;;;;;0.97;0.97;;;;;;;;;;4949288;28;20210;-66
2022/03/10 12:07:29;;;;;;;2.65;2.03;;;;;;;;;;4968776;28;20321;-66
2022/03/10 12:10:03;;;;;;;1.13;0.70;;;;;;;;;;4967197;28;20209;-67
2022/03/10 12:12:30;;;;;;;1.00;0.77;;;;;;;;;;4969246;28;20205;-66
2022/03/10 12:14:59;;;;;;;1.42;1.25;;;;;;;;;;4964100;28;20607;-67
2022/03/10 12:17:45;;;;;;;5.15;2.65;;;;;;;;;;4963063;28;20211;-67
2022/03/10 12:20:18;;;;;;;1.35;1.25;;;;;;;;;;4970689;28;20202;-66
2022/03/10 12:23:00;;;;;;;1.30;1.20;;;;;;;;;;4967898;28;20626;-68
2022/03/10 12:25:28;;;;;;;1.23;1.17;;;;;;;;;;4968055;28;20205;-66
2022/03/10 12:27:56;;;;;;;1.40;1.30;;;;;;;;;;4968847;28;20217;-67
2022/03/10 12:30:24;;;;;;;0.98;0.98;;;;;;;;;;4969288;28;20303;-67
2022/03/10 12:32:52;;;;;;;7.10;2.10;;;;;;;;;;4966543;28;20218;-68
2022/03/10 12:35:22;;;;;;;0.00;0.00;;;;;;;;;;4965909;28;20245;-66
2022/03/10 12:37:50;;;;;;;2.72;1.92;;;;;;;;;;4969008;28;20634;-65
2022/03/10 12:40:21;;;;;;;0.13;0.13;;;;;;;;;;4966220;28;20568;-65
2022/03/10 12:42:48;;;;;;;3.40;3.10;;;;;;;;;;4967221;28;20301;-65
2022/03/10 12:45:20;;;;;;;1.73;0.65;;;;;;;;;;4965210;28;20207;-67
2022/03/10 12:47:49;;;;;;;1.73;1.63;;;;;;;;;;4966981;28;20285;-65
2022/03/10 12:50:17;;;;;;;0.00;0.00;;;;;;;;;;4967581;28;20297;-67
2022/03/10 12:52:46;;;;;;;0.25;0.25;;;;;;;;;;4968584;28;20329;-67
2022/03/10 12:55:14;;;;;;;0.15;0.15;;;;;;;;;;4962969;28;21220;-67
2022/03/10 12:57:42;;;;;;;1.00;0.65;;;;;;;;;;4965801;28;20209;-67
2022/03/10 13:00:19;;;;;;;1.58;1.58;;;;;;;;;;4965949;28;20256;-66
2022/03/10 13:02:47;;;;;;;1.10;1.02;;;;;;;;;;4965232;28;20293;-65
2022/03/10 13:05:20;;;;;;;0.00;0.00;;;;;;;;;;4964299;28;20623;-67
2022/03/10 13:07:49;;;;;;;23.45;5.13;;;;;;;;;;4969364;28;20215;-67
2022/03/10 13:10:17;;;;;;;3.83;2.85;;;;;;;;;;4966619;28;20205;-71
2022/03/10 13:12:47;;;;;;;0.45;0.45;;;;;;;;;;4967405;28;20206;-65
2022/03/10 13:15:19;;;;;;;0.88;0.85;;;;;;;;;;4970247;28;20233;-66
2022/03/10 13:17:47;;;;;;;0.32;0.32;;;;;;;;;;4968261;28;20558;-68
2022/03/10 13:20:15;;;;;;;0.03;0.03;;;;;;;;;;4967742;28;20202;-68
2022/03/10 13:22:46;;;;;;;0.68;0.68;;;;;;;;;;4966158;28;20245;-65
2022/03/10 13:25:16;;;;;;;2.17;1.65;;;;;;;;;;4966503;28;20210;-67
2022/03/10 13:27:44;;;;;;;5.85;3.20;;;;;;;;;;4968350;28;20565;-71
2022/03/10 13:30:18;;;;;;;0.75;0.75;;;;;;;;;;4968734;28;20226;-67
2022/03/10 13:32:47;;;;;;;1.67;1.23;;;;;;;;;;4970363;28;20209;-65
2022/03/10 13:35:15;;;;;;;0.47;0.47;;;;;;;;;;4970743;28;20264;-66
2022/03/10 13:37:44;;;;;;;3.58;1.25;;;;;;;;;;4971098;28;20215;-65
2022/03/10 13:40:15;;;;;;;2.45;2.35;;;;;;;;;;4963506;28;20205;-65
2022/03/10 13:42:46;;;;;;;7.68;4.47;;;;;;;;;;4962814;28;20298;-66
2022/03/10 13:45:14;;;;;;;0.88;0.88;;;;;;;;;;4960903;28;20214;-66
2022/03/10 13:47:49;;;;;;;1.17;0.88;;;;;;;;;;4970261;28;20234;-65
2022/03/10 13:50:18;;;;;;;2.92;0.35;;;;;;;;;;4963082;28;20655;-65
2022/03/10 13:52:45;;;;;;;1.92;1.17;;;;;;;;;;4962286;28;20198;-65
2022/03/10 13:55:14;;;;;;;0.68;0.68;;;;;;;;;;4966337;28;20341;-65
2022/03/10 13:57:45;;;;;;;1.63;1.17;;;;;;;;;;4963763;28;20214;-65
2022/03/10 14:00:13;;;;;;;0.32;0.30;;;;;;;;;;4964268;28;20221;-65
2022/03/10 14:02:49;;;;;;;10.68;3.97;;;;;;;;;;4962751;28;20683;-65
2022/03/10 14:05:17;;;;;;;0.80;0.35;;;;;;;;;;4965466;28;20578;-66
2022/03/10 14:07:51;;;;;;;2.17;1.27;;;;;;;;;;4963208;28;20287;-65
2022/03/10 14:10:29;;;;;;;1.33;0.90;;;;;;;;;;4963299;28;20225;-66
2022/03/10 14:12:57;;;;;;;0.70;0.70;;;;;;;;;;4967719;28;20282;-66
2022/03/10 14:15:29;;;;;;;0.00;0.00;;;;;;;;;;4961008;28;20313;-66
2022/03/10 14:17:59;;;;;;;2.13;1.48;;;;;;;;;;4963255;28;20297;-66
2022/03/10 14:20:40;;;;;;;1.25;1.15;;;;;;;;;;4970238;28;20237;-66
2022/03/10 14:23:07;;;;;;;1.05;1.00;;;;;;;;;;4962037;28;20202;-66
2022/03/10 14:25:46;;;;;;;1.40;1.38;;;;;;;;;;4960490;28;20230;-65
2022/03/10 14:28:15;;;;;;;0.47;0.47;;;;;;;;;;4971269;28;20575;-66
2022/03/10 14:30:48;;;;;;;1.10;0.93;;;;;;;;;;4960170;28;20838;-66
2022/03/10 14:33:15;;;;;;;1.00;0.68;;;;;;;;;;4962504;28;20207;-65
2022/03/10 14:35:43;;;;;;;1.65;0.60;;;;;;;;;;4968305;28;20691;-66
2022/03/10 14:38:11;;;;;;;1.55;0.70;;;;;;;;;;4963112;28;20277;-65
2022/03/10 14:40:40;;;;;;;9.57;2.63;;;;;;;;;;4963406;28;20210;-66
2022/03/10 14:43:09;;;;;;;10.68;3.10;;;;;;;;;;4963201;28;20202;-65
2022/03/10 14:45:37;;;;;;;0.55;0.55;;;;;;;;;;4960835;28;20254;-65
2022/03/10 14:48:05;;;;;;;0.30;0.17;;;;;;;;;;4955634;28;20601;-73
2022/03/10 14:50:32;;;;;;;0.43;0.38;;;;;;;;;;4960799;28;20206;-66
2022/03/10 14:53:00;;;;;;;0.80;0.80;;;;;;;;;;4967021;28;20206;-66
2022/03/10 14:55:27;;;;;;;4.28;2.42;;;;;;;;;;4959719;28;20236;-66
2022/03/10 14:57:55;;;;;;;0.00;0.00;;;;;;;;;;4957756;28;20206;-66
2022/03/10 15:00:23;;;;;;;0.93;0.93;;;;;;;;;;4962788;28;20234;-66
2022/03/10 15:02:51;;;;;;;4.82;2.15;;;;;;;;;;4969333;28;20210;-66
2022/03/10 15:05:18;;;;;;;2.03;1.00;;;;;;;;;;4965335;28;20221;-66
2022/03/10 15:07:46;;;;;;;0.88;0.75;;;;;;;;;;4958437;28;20610;-66
2022/03/10 15:10:16;;;;;;;2.72;2.08;;;;;;;;;;4971128;28;20229;-66
2022/03/10 15:12:43;;;;;;;1.48;1.02;;;;;;;;;;4961431;28;20199;-66
2022/03/10 15:15:11;;;;;;;0.00;0.00;;;;;;;;;;4959499;28;20211;-66
2022/03/10 15:17:40;;;;;;;1.35;1.23;;;;;;;;;;4964935;28;20571;-65
2022/03/10 15:20:08;;;;;;;1.13;1.13;;;;;;;;;;4962489;28;20222;-66
2022/03/10 15:22:54;;;;;;;2.90;1.77;;;;;;;;;;4963059;28;20210;-66
2022/03/10 15:25:22;;;;;;;0.70;0.57;;;;;;;;;;4962911;28;20293;-65
2022/03/10 15:27:49;;;;;;;1.70;1.60;;;;;;;;;;4964241;28;20222;-66
2022/03/10 15:30:17;;;;;;;2.35;0.57;;;;;;;;;;4957543;28;20761;-66
2022/03/10 15:32:46;;;;;;;1.75;1.20;;;;;;;;;;4963510;28;20225;-67
2022/03/10 15:35:16;;;;;;;0.10;0.10;;;;;;;;;;4960472;28;20639;-66
2022/03/10 15:37:44;;;;;;;0.20;0.10;;;;;;;;;;4963381;28;20702;-66
2022/03/10 15:40:12;;;;;;;0.43;0.43;;;;;;;;;;4962291;28;20217;-66
2022/03/10 15:42:39;;;;;;;0.57;0.57;;;;;;;;;;4961746;28;20285;-65
2022/03/10 15:45:07;;;;;;;0.00;0.00;;;;;;;;;;4963077;28;20684;-65
2022/03/10 15:47:35;;;;;;;3.03;0.90;;;;;;;;;;4959342;28;20211;-66
2022/03/10 15:50:04;;;;;;;0.50;0.50;;;;;;;;;;4962144;28;20202;-66
2022/03/10 15:52:32;;;;;;;0.00;0.00;;;;;;;;;;4967217;28;20220;-66
2022/03/10 15:55:01;;;;;;;0.30;0.30;;;;;;;;;;4956886;28;20207;-67
2022/03/10 15:57:29;;;;;;;0.00;0.00;;;;;;;;;;4958310;28;20235;-67
2022/03/10 15:59:57;;;;;;;1.33;1.23;;;;;;;;;;4967987;28;20762;-66
2022/03/10 16:02:25;;;;;;;1.67;0.70;;;;;;;;;;4960015;28;20214;-66
2022/03/10 16:04:52;;;;;;;2.00;1.23;;;;;;;;;;4966907;28;20210;-66
2022/03/10 16:07:23;;;;;;;1.30;1.20;;;;;;;;;;4965400;28;20761;-66
2022/03/10 16:09:50;;;;;;;0.20;0.20;;;;;;;;;;4964948;28;20615;-67